Flight Track Log - Related Links

Times and Time Zones

All times are in EDT time to prevent confusion due to time zone crossing. See the SKW5535 flight status page for this flight to view local times or setup timezone preferences in your user account.

Time Position Orientation Groundspeed Altitude Reporting Facility
EDT Latitude Longitude Course Direction KTS MPH feet Rate Location/Type
Mon 12:43:37 PM 39.8500 -104.7833 348° North 203 234 7,600  Level Denver TRACON
Mon 12:44:43 PM 39.9000 -104.8667 308° West 270 311 9,200 1,667 Climbing Denver TRACON
Mon 12:45:00 PM 40.2916 -104.8091 347° North  Level FlightAware Approximate
Mon 12:45:43 PM 39.9500 -104.9333 314° West 304 350 11,100  Level Denver TRACON
Mon 12:46:00 PM 40.4021 -104.8451 346° North  Level FlightAware Approximate
Mon 12:46:43 PM 40.0333 -104.9333 360° North 307 353 13,200  Level Denver TRACON
Mon 12:47:00 PM 40.5125 -104.8820 346° North  Level FlightAware Approximate
Mon 12:48:00 PM 40.6238 -104.9139 348° North  Level FlightAware Approximate
Mon 12:48:12 PM 40.1669 -104.9258 North 311 358 16,000  Level Denver Center
Mon 12:49:14 PM 40.2678 -104.9136 North 339 390 17,700 1,279 Climbing Denver Center
Mon 12:50:28 PM 40.3606 -104.9050 North 338 389 18,900 1,358 Climbing Denver Center
Mon 12:51:31 PM 40.4806 -104.8881 North 351 404 20,800 1,584 Climbing Denver Center
Mon 12:52:33 PM 40.5858 -104.8778 North 353 406 22,200 1,210 Climbing Denver Center
Mon 12:53:35 PM 40.6744 -104.9253 338° Northwest 363 418 23,300 1,016 Climbing Denver Center
Mon 12:54:37 PM 40.7503 -105.0208 316° Northwest 351 404 24,300 968 Climbing Denver Center
Mon 12:55:39 PM 40.8231 -105.1097 317° Northwest 355 409 25,300 968 Climbing Denver Center
Mon 12:56:41 PM 40.8975 -105.2039 316° Northwest 369 425 26,300 871 Climbing Denver Center
Mon 12:57:43 PM 40.9731 -105.2994 316° Northwest 375 432 27,100 774 Climbing Denver Center
Mon 12:58:45 PM 41.0544 -105.4033 316° Northwest 382 440 27,900 774 Climbing Denver Center
Mon 12:59:47 PM 41.1417 -105.5161 316° Northwest 390 449 28,700 629 Climbing Denver Center
Mon 01:00:49 PM 41.2169 -105.6106 317° Northwest 389 448 29,200 532 Climbing Denver Center
Mon 01:01:51 PM 41.2933 -105.7094 316° Northwest 397 457 29,800 581 Climbing Denver Center
Mon 01:02:53 PM 41.3833 -105.8261 316° Northwest 404 465 30,400 581 Climbing Denver Center
Mon 01:03:55 PM 41.4619 -105.9278 316° Northwest 408 470 31,000 532 Climbing Denver Center
Mon 01:04:57 PM 41.5400 -106.0292 316° Northwest 408 470 31,500 484 Climbing Denver Center
Mon 01:05:59 PM 41.6322 -106.1503 316° Northwest 414 476 32,000 240 Climbing Denver Center
Mon 01:07:02 PM 41.7244 -106.2711 316° Northwest 415 478 32,000  Level Denver Center
Mon 01:08:04 PM 41.8044 -106.3756 316° Northwest 418 481 32,000 145 Level Denver Center
Mon 01:09:06 PM 41.8997 -106.5019 315° West 428 493 32,300 484 Climbing Denver Center
Mon 01:10:08 PM 41.9819 -106.6094 316° Northwest 434 499 33,000 726 Climbing Denver Center
Mon 01:11:10 PM 42.0739 -106.7317 315° West 421 484 33,800 484 Climbing Denver Center
Mon 01:12:12 PM 42.1519 -106.8361 315° West 415 478 34,000 97 Climbing Denver Center
Mon 01:13:14 PM 42.2433 -106.9608 315° West 419 482 34,000  Level Denver Center
Mon 01:14:16 PM 42.3247 -107.0700 315° West 429 494 34,000  Level Denver Center
Mon 01:15:18 PM 42.3928 -107.1617 315° West 434 499 34,000 387 Level Denver Center
Mon 01:16:20 PM 42.4869 -107.2892 315° West 430 495 34,800 849 Climbing Denver Center
Mon 01:17:04 PM 42.5653 -107.3972 315° West 422 486 35,500 679 Climbing Salt Lake Center
Mon 01:18:06 PM 42.6403 -107.4994 315° West 408 470 36,000 242 Climbing Salt Lake Center
Mon 01:19:08 PM 42.7261 -107.6186 314° West 400 460 36,000  Level Salt Lake Center
Mon 01:20:10 PM 42.8003 -107.7219 314° West 398 458 36,000  Level Salt Lake Center
Mon 01:21:12 PM 42.8867 -107.8408 315° West 398 458 36,000  Level Salt Lake Center
Mon 01:22:14 PM 42.9603 -107.9436 314° West 397 457 36,000  Level Salt Lake Center
Mon 01:23:16 PM 43.0456 -108.0631 314° West 395 455 36,000  Level Salt Lake Center
Mon 01:24:18 PM 43.1194 -108.1681 314° West 398 458 36,000  Level Salt Lake Center
Mon 01:25:20 PM 43.2053 -108.2875 315° West 396 456 36,000  Level Salt Lake Center
Mon 01:26:22 PM 43.2781 -108.3917 314° West 396 456 36,000  Level Salt Lake Center
Mon 01:27:24 PM 43.3642 -108.5131 314° West 399 459 36,000  Level Salt Lake Center
Mon 01:28:26 PM 43.4372 -108.6178 314° West 399 459 36,000  Level Salt Lake Center
Mon 01:29:28 PM 43.5378 -108.7183 324° Northwest 400 460 36,000  Level Salt Lake Center
Mon 01:30:31 PM 43.6275 -108.8003 327° Northwest 404 465 36,000  Level Salt Lake Center
Mon 01:31:33 PM 43.7328 -108.8933 327° Northwest 404 465 36,000  Level Salt Lake Center
Mon 01:32:35 PM 43.8219 -108.9761 326° Northwest 406 467 36,000  Level Salt Lake Center
Mon 01:33:37 PM 43.9261 -109.0703 327° Northwest 403 464 36,000  Level Salt Lake Center
Mon 01:34:39 PM 44.0142 -109.1569 325° Northwest 405 466 36,000  Level Salt Lake Center
Mon 01:35:41 PM 44.1019 -109.2786 315° West 402 463 36,000  Level Salt Lake Center
Mon 01:36:43 PM 44.1717 -109.3917 311° West 402 463 36,000  Level Salt Lake Center
Mon 01:37:45 PM 44.2433 -109.5022 312° West 402 463 36,000  Level Salt Lake Center
Mon 01:38:47 PM 44.3261 -109.6347 311° West 405 466 36,000  Level Salt Lake Center
Mon 01:39:49 PM 44.3981 -109.7481 312° West 407 468 36,000  Level Salt Lake Center
Mon 01:40:51 PM 44.4806 -109.8806 311° West 405 466 36,000  Level Salt Lake Center
Mon 01:41:53 PM 44.5511 -109.9947 311° West 406 467 36,000  Level Salt Lake Center
Mon 01:42:55 PM 44.6325 -110.1272 311° West 403 464 36,000  Level Salt Lake Center
Mon 01:43:57 PM 44.7036 -110.2414 311° West 404 465 36,000  Level Salt Lake Center
Mon 01:44:59 PM 44.7847 -110.3736 311° West 402 463 36,000  Level Salt Lake Center
Mon 01:46:01 PM 44.8542 -110.4881 311° West 402 463 36,000  Level Salt Lake Center
Mon 01:47:03 PM 44.9350 -110.6200 311° West 400 460 36,000  Level Salt Lake Center
Mon 01:48:05 PM 45.0039 -110.7322 311° West 398 458 36,000  Level Salt Lake Center
Mon 01:49:07 PM 45.0822 -110.8639 310° West 395 455 36,000  Level Salt Lake Center
Mon 01:50:09 PM 45.1508 -110.9778 311° West 398 458 36,000  Level Salt Lake Center
Mon 01:51:11 PM 45.2214 -111.0981 310° West 396 456 36,000  Level Salt Lake Center
Mon 01:52:14 PM 45.2936 -111.2178 311° West 396 456 36,000  Level Salt Lake Center
Mon 01:53:16 PM 45.3792 -111.3628 310° West 397 457 36,000  Level Salt Lake Center
Mon 01:54:18 PM 45.4494 -111.4850 309° West 396 456 36,000  Level Salt Lake Center
Mon 01:55:20 PM 45.5217 -111.6061 310° West 397 457 36,000  Level Salt Lake Center
Mon 01:56:22 PM 45.5939 -111.7275 310° West 398 458 36,000  Level Salt Lake Center
Mon 01:57:24 PM 45.6647 -111.8497 310° West 397 457 36,000  Level Salt Lake Center
Mon 01:58:26 PM 45.7364 -111.9722 310° West 398 458 36,000  Level Salt Lake Center
Mon 01:59:29 PM 45.8067 -112.0953 309° West 398 458 36,000  Level Salt Lake Center
Mon 02:00:31 PM 45.8922 -112.2422 310° West 399 459 36,000 -242 Level Salt Lake Center
Mon 02:01:33 PM 45.9631 -112.3656 310° West 400 460 35,500 -1,548 Descending Salt Lake Center
Mon 02:02:35 PM 46.0344 -112.4931 309° West 407 468 32,800 -2,565 Descending Salt Lake Center
Mon 02:03:37 PM 46.1078 -112.6208 310° West 412 474 30,200 -2,496 Descending Salt Lake Center
Mon 02:04:40 PM 46.1778 -112.7469 309° West 405 466 27,600 -2,496 Descending Salt Lake Center
Mon 02:05:42 PM 46.2486 -112.8708 310° West 400 460 25,000 -2,516 Descending Salt Lake Center
Mon 02:06:44 PM 46.3150 -112.9928 308° West 388 447 22,400 -2,758 Descending Salt Lake Center
Mon 02:07:46 PM 46.3939 -113.1314 310° West 368 423 19,300 -2,661 Descending Salt Lake Center
Mon 02:08:48 PM 46.4542 -113.2400 309° West 361 415 16,900 -2,081 Descending Salt Lake Center
Mon 02:09:50 PM 46.5197 -113.3583 309° West 345 397 15,000 -919 Descending Salt Lake Center
Mon 02:10:52 PM 46.5717 -113.4544 308° West 307 353 15,000 -726 Level Salt Lake Center
Mon 02:11:54 PM 46.6281 -113.5569 309° West 303 349 13,500 -1,694 Descending Salt Lake Center
Mon 02:12:56 PM 46.6792 -113.6514 308° West 299 344 11,500 -1,984 Descending Salt Lake Center
Mon 02:13:58 PM 46.7333 -113.7506 309° West 292 336 9,400 -1,500 Descending Salt Lake Center
Mon 02:15:00 PM 46.7825 -113.8422 308° West 286 329 8,400 -919 Descending Salt Lake Center
Mon 02:16:02 PM 46.8164 -113.9217 302° West 219 252 7,500 -1,403 Descending Salt Lake Center
Mon 02:17:04 PM 46.8408 -113.9961 296° West 219 252 5,500 -1,645 Descending Salt Lake Center
Mon 02:18:06 PM 46.8828 -114.0347 328° Northwest 165 190 4,100 -1,113 Descending Salt Lake Center
Mon 02:19:08 PM 46.9089 -114.0800 310° West 147 169 3,200 -871 Descending Salt Lake Center

Login

Don't have an account? Register now (free) for customized features, flight alerts, and more!